createdAt,value
2023-04-09T00:00:13.676Z,34.10
2023-04-09T00:02:42.047Z,36.27
2023-04-09T00:05:10.203Z,37.77
2023-04-09T00:07:38.221Z,37.97
2023-04-09T00:10:07.764Z,37.37
2023-04-09T00:12:37.691Z,38.67
2023-04-09T00:15:09.604Z,37.10
2023-04-09T00:17:39.397Z,36.57
2023-04-09T00:20:08.885Z,37.90
2023-04-09T00:22:36.685Z,38.13
2023-04-09T00:25:06.018Z,37.63
2023-04-09T00:27:33.813Z,40.20
2023-04-09T00:30:03.252Z,36.07
2023-04-09T00:32:31.342Z,36.57
2023-04-09T00:34:59.109Z,34.90
2023-04-09T00:37:26.983Z,37.00
2023-04-09T00:39:54.766Z,36.57
2023-04-09T00:42:22.997Z,34.60
2023-04-09T00:44:51.440Z,35.93
2023-04-09T00:47:20.675Z,36.20
2023-04-09T00:49:48.690Z,34.83
2023-04-09T00:52:16.692Z,38.73
2023-04-09T00:54:44.554Z,37.77
2023-04-09T00:57:12.442Z,38.10
2023-04-09T00:59:40.570Z,38.60
2023-04-09T01:02:08.532Z,40.23
2023-04-09T01:04:41.612Z,39.80
2023-04-09T01:07:23.491Z,39.23
2023-04-09T01:10:05.255Z,40.43
2023-04-09T01:15:25.486Z,38.67
2023-04-09T01:18:05.176Z,39.43
2023-04-09T01:20:40.526Z,39.03
2023-04-09T01:23:19.721Z,36.15
2023-04-09T01:26:05.562Z,35.63
2023-04-09T01:28:47.680Z,41.90
2023-04-09T01:31:19.973Z,43.87
2023-04-09T01:33:47.773Z,38.93
2023-04-09T01:36:16.614Z,45.00
2023-04-09T01:38:49.915Z,40.63
2023-04-09T01:41:21.780Z,41.47
2023-04-09T01:43:52.210Z,40.73
2023-04-09T01:46:22.590Z,41.83
2023-04-09T01:48:52.156Z,41.80
2023-04-09T01:51:20.294Z,45.40
2023-04-09T01:53:48.830Z,42.30
2023-04-09T01:56:16.624Z,43.37
2023-04-09T01:58:44.484Z,46.10
2023-04-09T02:01:22.954Z,46.73
2023-04-09T02:03:56.418Z,47.23
2023-04-09T02:06:34.555Z,48.20
2023-04-09T02:09:07.535Z,47.43
2023-04-09T02:11:40.677Z,47.93
2023-04-09T02:14:11.071Z,47.33
2023-04-09T02:16:41.539Z,49.87
2023-04-09T02:19:10.984Z,46.83
2023-04-09T02:21:38.979Z,50.43
2023-04-09T02:24:06.840Z,44.57
2023-04-09T02:26:35.049Z,46.30
2023-04-09T02:29:03.012Z,48.47
2023-04-09T02:31:30.818Z,46.60
2023-04-09T02:34:00.065Z,49.13
2023-04-09T02:36:27.922Z,50.90
2023-04-09T02:38:56.407Z,48.70
2023-04-09T02:41:24.864Z,52.23
2023-04-09T02:43:52.876Z,49.73
2023-04-09T02:46:20.797Z,52.63
2023-04-09T02:48:49.364Z,50.10
2023-04-09T02:51:20.420Z,54.70
2023-04-09T02:53:48.612Z,53.87
2023-04-09T02:56:16.337Z,55.47
2023-04-09T02:58:44.142Z,54.60
2023-04-09T03:01:12.022Z,56.10
2023-04-09T03:03:42.175Z,58.80
2023-04-09T03:06:10.577Z,57.03
2023-04-09T03:08:39.859Z,63.07
2023-04-09T03:11:07.915Z,59.47
2023-04-09T03:13:35.880Z,57.10
2023-04-09T03:16:04.193Z,59.07
2023-04-09T03:18:32.079Z,61.43
2023-04-09T03:20:59.862Z,60.70
2023-04-09T03:23:34.725Z,62.30
2023-04-09T03:26:06.179Z,60.23
2023-04-09T03:28:44.614Z,59.60
2023-04-09T03:31:14.086Z,62.33
2023-04-09T03:33:43.274Z,59.43
2023-04-09T03:36:12.142Z,58.50
2023-04-09T03:38:51.951Z,62.70
2023-04-09T03:41:32.894Z,55.67
2023-04-09T03:44:05.190Z,60.37
2023-04-09T03:46:41.623Z,60.67
2023-04-09T03:49:13.681Z,61.70
2023-04-09T03:51:44.499Z,63.87
2023-04-09T03:54:12.990Z,64.17
2023-04-09T03:56:43.059Z,61.40
2023-04-09T03:59:13.508Z,66.23
2023-04-09T04:01:45.411Z,63.17
2023-04-09T04:04:14.145Z,66.10
2023-04-09T04:06:45.253Z,61.93
2023-04-09T04:09:29.145Z,65.50
2023-04-09T04:12:03.219Z,73.90
2023-04-09T04:14:54.811Z,76.43
2023-04-09T04:17:32.953Z,69.20
2023-04-09T04:20:03.092Z,77.20
2023-04-09T04:22:35.943Z,73.80
2023-04-09T04:25:06.510Z,79.63
2023-04-09T04:27:35.682Z,82.50
2023-04-09T04:30:04.567Z,72.20
2023-04-09T04:32:50.755Z,79.10
2023-04-09T04:35:19.156Z,81.67
2023-04-09T04:37:49.897Z,90.47
2023-04-09T04:40:18.260Z,92.43
2023-04-09T04:42:52.399Z,91.40
2023-04-09T04:45:20.219Z,86.63
2023-04-09T04:47:53.606Z,93.50
2023-04-09T04:50:21.551Z,88.60
2023-04-09T04:53:00.585Z,94.77
2023-04-09T04:55:36.325Z,98.10
2023-04-09T04:58:06.457Z,91.13
2023-04-09T05:00:43.331Z,88.43
2023-04-09T05:03:12.011Z,86.33
2023-04-09T05:06:02.166Z,93.90
2023-04-09T05:08:37.482Z,96.43
2023-04-09T05:11:05.701Z,102.13
2023-04-09T05:13:39.276Z,101.80
2023-04-09T05:16:17.514Z,91.60
2023-04-09T05:18:48.588Z,87.00
2023-04-09T05:21:17.032Z,89.50
2023-04-09T05:23:46.299Z,94.23
2023-04-09T05:26:14.116Z,89.83
2023-04-09T05:28:52.740Z,82.00
2023-04-09T05:31:23.542Z,87.80
2023-04-09T05:33:58.986Z,72.00
2023-04-09T05:36:36.199Z,73.37
2023-04-09T05:39:04.333Z,64.97
2023-04-09T05:41:33.479Z,61.27
2023-04-09T05:44:28.430Z,59.47
2023-04-09T05:47:03.093Z,59.73
2023-04-09T05:49:41.657Z,64.67
2023-04-09T05:52:14.616Z,55.13
2023-04-09T05:54:42.631Z,58.17
2023-04-09T05:57:12.120Z,57.77
2023-04-09T05:59:45.271Z,58.63
2023-04-09T06:02:13.222Z,53.87
2023-04-09T06:04:41.402Z,58.30
2023-04-09T06:07:09.306Z,55.13
2023-04-09T06:09:38.023Z,49.50
2023-04-09T06:12:05.938Z,54.70
2023-04-09T06:14:33.751Z,52.03
2023-04-09T06:17:03.461Z,52.70
2023-04-09T06:19:31.512Z,53.13
2023-04-09T06:21:59.253Z,51.93
2023-04-09T06:24:27.110Z,50.10
2023-04-09T06:26:55.342Z,49.60
2023-04-09T06:29:24.371Z,50.77
2023-04-09T06:31:52.644Z,47.87
2023-04-09T06:34:21.869Z,46.83
2023-04-09T06:36:49.663Z,45.33
2023-04-09T06:39:17.475Z,47.30
2023-04-09T06:41:46.388Z,44.60
2023-04-09T06:44:26.834Z,48.37
2023-04-09T06:46:54.682Z,48.17
2023-04-09T06:49:24.016Z,41.20
2023-04-09T06:51:53.555Z,45.80
2023-04-09T06:54:21.320Z,42.80
2023-04-09T06:56:49.181Z,44.83
2023-04-09T06:59:16.906Z,45.53
2023-04-09T07:01:45.777Z,43.97
2023-04-09T07:04:13.677Z,43.63
2023-04-09T07:06:42.867Z,39.87
2023-04-09T07:09:11.061Z,40.63
2023-04-09T07:11:38.839Z,40.17
2023-04-09T07:14:06.632Z,38.73
2023-04-09T07:16:34.486Z,40.43
2023-04-09T07:19:02.409Z,39.70
2023-04-09T07:21:30.393Z,37.90
2023-04-09T07:23:59.563Z,38.77
2023-04-09T07:26:27.422Z,39.37
2023-04-09T07:28:56.078Z,41.37
2023-04-09T07:31:23.986Z,39.23
2023-04-09T07:33:51.979Z,38.47
2023-04-09T07:36:20.020Z,40.40
2023-04-09T07:38:47.775Z,36.30
2023-04-09T07:41:17.016Z,36.25
2023-04-09T07:43:44.807Z,37.10
2023-04-09T07:46:19.803Z,35.05
2023-04-09T07:48:49.378Z,34.55
2023-04-09T07:51:17.344Z,36.97
2023-04-09T07:53:45.230Z,32.92
2023-04-09T07:56:13.628Z,33.35
2023-04-09T07:58:43.044Z,35.33
2023-04-09T08:01:10.840Z,29.98
2023-04-09T08:03:38.761Z,31.30
2023-04-09T08:06:07.212Z,29.23
2023-04-09T08:08:35.693Z,28.63
2023-04-09T08:11:04.064Z,32.38
2023-04-09T08:13:31.846Z,28.02
2023-04-09T08:16:02.650Z,29.38
2023-04-09T08:18:30.491Z,28.58
2023-04-09T08:20:58.301Z,28.33
2023-04-09T08:23:26.303Z,27.20
2023-04-09T08:25:54.020Z,27.13
2023-04-09T08:28:21.772Z,21.92
2023-04-09T08:30:50.058Z,23.90
2023-04-09T08:33:19.142Z,24.90
2023-04-09T08:35:47.033Z,25.10
2023-04-09T08:38:15.889Z,22.63
2023-04-09T08:40:43.734Z,19.92
2023-04-09T08:43:18.880Z,23.58
2023-04-09T08:48:17.993Z,20.88
2023-04-09T08:50:47.569Z,21.45
2023-04-09T08:53:17.516Z,20.75
2023-04-09T08:55:46.302Z,20.85
2023-04-09T08:58:14.488Z,19.73
2023-04-09T09:00:42.432Z,18.98
2023-04-09T09:03:15.995Z,18.52
2023-04-09T09:05:46.906Z,20.92
2023-04-09T09:08:24.768Z,18.92
2023-04-09T09:10:52.732Z,19.98
2023-04-09T09:13:23.571Z,16.13
2023-04-09T09:15:55.229Z,17.10
2023-04-09T09:18:41.054Z,16.10
2023-04-09T09:21:15.620Z,16.38
2023-04-09T09:23:44.232Z,18.58
2023-04-09T09:26:13.777Z,18.58
2023-04-09T09:28:42.072Z,16.55
2023-04-09T09:31:11.923Z,18.67
2023-04-09T09:33:40.852Z,14.30
2023-04-09T09:36:09.490Z,16.73
2023-04-09T09:38:56.318Z,14.15
2023-04-09T09:41:25.825Z,16.58
2023-04-09T09:43:53.626Z,14.82
2023-04-09T09:46:22.864Z,14.27
2023-04-09T09:48:51.106Z,13.15
2023-04-09T09:51:25.844Z,13.00
2023-04-09T09:53:57.158Z,13.50
2023-04-09T09:56:32.645Z,13.57
2023-04-09T09:59:07.848Z,12.13
2023-04-09T10:01:36.605Z,12.23
2023-04-09T10:04:13.287Z,12.73
2023-04-09T10:06:45.054Z,12.80
2023-04-09T10:09:16.044Z,12.43
2023-04-09T10:11:47.944Z,12.13
2023-04-09T10:14:17.668Z,13.02
2023-04-09T10:16:46.925Z,12.95
2023-04-09T10:19:15.612Z,12.68
2023-04-09T10:21:53.422Z,13.48
2023-04-09T10:24:24.122Z,14.80
2023-04-09T10:26:55.006Z,13.60
2023-04-09T10:29:29.194Z,13.95
2023-04-09T10:32:06.242Z,14.15
2023-04-09T10:34:38.495Z,13.50
2023-04-09T10:37:12.287Z,14.43
2023-04-09T10:39:47.310Z,13.75
2023-04-09T10:45:06.848Z,13.70
2023-04-09T10:47:37.914Z,13.93
2023-04-09T10:50:18.746Z,13.48
2023-04-09T10:52:51.776Z,12.40
2023-04-09T10:55:37.506Z,13.35
2023-04-09T10:58:12.696Z,14.68
2023-04-09T11:00:44.438Z,14.25
2023-04-09T11:03:22.389Z,13.15
2023-04-09T11:06:02.697Z,15.48
2023-04-09T11:08:33.185Z,15.07
2023-04-09T11:11:03.484Z,15.70
2023-04-09T11:13:32.859Z,14.52
2023-04-09T11:16:03.352Z,13.50
2023-04-09T11:18:33.817Z,15.63
2023-04-09T11:21:04.412Z,13.98
2023-04-09T11:23:33.453Z,14.10
2023-04-09T11:26:02.801Z,14.25
2023-04-09T11:28:30.734Z,13.05
2023-04-09T11:30:58.550Z,13.82
2023-04-09T11:33:33.182Z,12.77
2023-04-09T11:36:01.733Z,13.50
2023-04-09T11:38:31.587Z,13.60
2023-04-09T11:40:59.426Z,13.43
2023-04-09T11:43:28.634Z,13.32
2023-04-09T11:45:57.669Z,15.50
2023-04-09T11:48:25.956Z,12.95
2023-04-09T11:50:54.464Z,12.20
2023-04-09T11:53:23.736Z,12.68
2023-04-09T11:55:53.464Z,11.30
2023-04-09T11:58:24.096Z,11.93
2023-04-09T12:00:56.064Z,12.30
2023-04-09T12:03:30.696Z,12.32
2023-04-09T12:06:01.773Z,12.98
2023-04-09T12:08:31.107Z,12.10
2023-04-09T12:11:09.132Z,13.00
2023-04-09T12:13:37.028Z,12.32
2023-04-09T12:16:06.303Z,12.70
2023-04-09T12:18:37.412Z,12.98
2023-04-09T12:21:06.170Z,13.20
2023-04-09T12:23:33.963Z,15.38
2023-04-09T12:26:02.171Z,12.18
2023-04-09T12:28:30.749Z,11.82
2023-04-09T12:30:59.415Z,12.32
2023-04-09T12:33:28.872Z,12.93
2023-04-09T12:35:58.235Z,12.73
2023-04-09T12:38:26.721Z,12.85
2023-04-09T12:40:54.511Z,13.90
2023-04-09T12:43:22.364Z,13.85
2023-04-09T12:45:50.218Z,13.30
2023-04-09T12:48:18.053Z,14.25
2023-04-09T12:50:47.687Z,13.73
2023-04-09T12:53:15.630Z,12.68
2023-04-09T12:55:43.415Z,12.23
2023-04-09T12:58:11.271Z,13.88
2023-04-09T13:00:39.184Z,15.32
2023-04-09T13:03:07.373Z,12.25
2023-04-09T13:05:35.595Z,11.90
2023-04-09T13:08:04.847Z,12.68
2023-04-09T13:10:33.303Z,13.35
2023-04-09T13:13:01.401Z,12.88
2023-04-09T13:15:29.206Z,12.90
2023-04-09T13:17:57.133Z,11.63
2023-04-09T13:20:25.029Z,13.73
2023-04-09T13:22:52.881Z,12.43
2023-04-09T13:25:22.201Z,13.45
2023-04-09T13:27:50.130Z,11.32
2023-04-09T13:30:18.254Z,25.70
2023-04-09T13:32:46.184Z,19.90
2023-04-09T13:35:14.065Z,14.23
2023-04-09T13:37:42.116Z,12.27
2023-04-09T13:40:10.939Z,11.90
2023-04-09T13:42:40.266Z,12.07
2023-04-09T13:45:08.815Z,11.13
2023-04-09T13:47:36.903Z,11.00
2023-04-09T13:50:06.316Z,10.82
2023-04-09T13:52:34.120Z,11.15
2023-04-09T13:55:03.680Z,11.02
2023-04-09T13:57:31.701Z,12.65
2023-04-09T14:00:05.085Z,10.48
2023-04-09T14:02:33.181Z,10.70
2023-04-09T14:05:02.462Z,10.63
2023-04-09T14:07:30.779Z,11.13
2023-04-09T14:09:58.481Z,10.35
2023-04-09T14:12:26.243Z,10.25
2023-04-09T14:14:54.088Z,10.40
2023-04-09T14:17:23.134Z,10.98
2023-04-09T14:19:51.239Z,10.15
2023-04-09T14:22:19.133Z,8.60
2023-04-09T14:24:47.008Z,9.88
2023-04-09T14:27:14.876Z,9.57
2023-04-09T14:29:42.829Z,9.02
2023-04-09T14:32:10.585Z,10.57
2023-04-09T14:34:39.927Z,10.30
2023-04-09T14:37:08.722Z,9.20
2023-04-09T14:39:36.603Z,9.95
2023-04-09T14:42:04.482Z,10.57
2023-04-09T14:44:32.859Z,10.50
2023-04-09T14:47:00.816Z,11.88
2023-04-09T14:49:28.830Z,11.18
2023-04-09T14:51:58.929Z,10.90
2023-04-09T14:54:27.028Z,10.82
2023-04-09T14:56:54.850Z,10.68
2023-04-09T14:59:22.709Z,10.13
2023-04-09T15:01:50.727Z,10.82
2023-04-09T15:04:18.745Z,9.63
2023-04-09T15:06:46.871Z,22.98
2023-04-09T15:09:16.264Z,10.10
2023-04-09T15:11:44.138Z,10.20
2023-04-09T15:14:12.059Z,9.73
2023-04-09T15:16:39.895Z,10.07
2023-04-09T15:19:08.992Z,11.70
2023-04-09T15:21:36.754Z,9.48
2023-04-09T15:24:04.774Z,9.75
2023-04-09T15:26:34.367Z,10.60
2023-04-09T15:29:06.395Z,10.32
2023-04-09T15:31:34.685Z,10.20
2023-04-09T15:34:02.456Z,10.25
2023-04-09T15:36:31.505Z,10.88
2023-04-09T15:38:59.416Z,11.23
2023-04-09T15:41:27.411Z,10.48
2023-04-09T15:43:56.621Z,10.40
2023-04-09T15:46:24.503Z,10.95
2023-04-09T15:48:52.847Z,11.27
2023-04-09T15:51:21.266Z,11.25
2023-04-09T15:53:49.122Z,11.55
2023-04-09T15:56:16.965Z,10.85
2023-04-09T15:58:44.842Z,10.98
2023-04-09T16:01:14.203Z,10.27
2023-04-09T16:03:42.237Z,12.35
2023-04-09T16:06:14.437Z,11.30
2023-04-09T16:08:42.464Z,13.07
2023-04-09T16:11:10.698Z,11.15
2023-04-09T16:13:38.543Z,11.38
2023-04-09T16:16:07.470Z,12.70
2023-04-09T16:18:36.750Z,12.27
2023-04-09T16:21:05.683Z,13.02
2023-04-09T16:23:33.712Z,13.25
2023-04-09T16:26:01.507Z,11.95
2023-04-09T16:28:29.390Z,12.73
2023-04-09T16:30:57.172Z,13.65
2023-04-09T16:33:25.153Z,13.82
2023-04-09T16:35:54.328Z,13.15
2023-04-09T16:38:23.583Z,12.85
2023-04-09T16:40:51.510Z,13.10
2023-04-09T16:43:19.390Z,13.95
2023-04-09T16:45:47.269Z,14.65
2023-04-09T16:48:15.446Z,16.88
2023-04-09T16:50:43.508Z,13.73
2023-04-09T16:53:12.694Z,14.05
2023-04-09T16:55:40.587Z,13.05
2023-04-09T16:58:08.312Z,13.18
2023-04-09T17:00:36.153Z,12.15
2023-04-09T17:03:04.241Z,13.63
2023-04-09T17:05:32.540Z,14.52
2023-04-09T17:08:00.588Z,15.45
2023-04-09T17:10:29.886Z,17.33
2023-04-09T17:12:57.710Z,16.63
2023-04-09T17:15:25.915Z,16.67
2023-04-09T17:17:53.918Z,15.57
2023-04-09T17:20:22.669Z,17.23
2023-04-09T17:22:50.678Z,20.70
2023-04-09T17:25:20.286Z,18.13
2023-04-09T17:27:49.390Z,15.55
2023-04-09T17:30:17.351Z,18.07
2023-04-09T17:32:45.842Z,16.40
2023-04-09T17:35:13.785Z,15.90
2023-04-09T17:37:41.620Z,18.10
2023-04-09T17:40:12.288Z,17.07
2023-04-09T17:42:40.991Z,19.03
2023-04-09T17:45:11.888Z,19.90
2023-04-09T17:47:40.661Z,21.53
2023-04-09T17:50:09.800Z,21.57
2023-04-09T17:52:38.627Z,22.40
2023-04-09T17:55:07.687Z,21.90
2023-04-09T17:57:35.834Z,26.63
2023-04-09T18:00:04.809Z,24.30
2023-04-09T18:02:34.952Z,23.20
2023-04-09T18:05:04.862Z,22.73
2023-04-09T18:07:37.180Z,21.77
2023-04-09T18:10:06.243Z,26.77
2023-04-09T18:12:34.084Z,33.53
2023-04-09T18:15:02.085Z,38.00
2023-04-09T18:17:30.004Z,29.70
2023-04-09T18:19:59.176Z,30.07
2023-04-09T18:22:27.322Z,38.40
2023-04-09T18:24:55.437Z,37.47
2023-04-09T18:27:23.270Z,59.77
2023-04-09T18:29:52.348Z,111.07
2023-04-09T18:32:20.302Z,76.83
2023-04-09T18:34:48.388Z,77.50
2023-04-09T18:37:19.138Z,52.40
2023-04-09T18:39:47.297Z,38.53
2023-04-09T18:42:15.322Z,32.33
2023-04-09T18:44:43.766Z,26.33
2023-04-09T18:47:11.803Z,29.90
2023-04-09T18:49:39.545Z,32.43
2023-04-09T18:52:09.226Z,31.07
2023-04-09T18:54:38.808Z,33.43
2023-04-09T18:57:07.377Z,32.83
2023-04-09T18:59:35.618Z,31.60
2023-04-09T19:02:05.125Z,31.90
2023-04-09T19:04:39.602Z,33.77
2023-04-09T19:07:07.988Z,40.80
2023-04-09T19:09:37.127Z,42.93
2023-04-09T19:12:06.543Z,44.43
2023-04-09T19:14:36.332Z,47.00
2023-04-09T19:17:04.135Z,46.70
2023-04-09T19:19:32.451Z,47.17
2023-04-09T19:22:00.390Z,57.03
2023-04-09T19:24:28.174Z,57.90
2023-04-09T19:26:56.562Z,57.13
2023-04-09T19:29:25.694Z,55.83
2023-04-09T19:31:53.712Z,60.00
2023-04-09T19:34:21.709Z,63.53
2023-04-09T19:36:49.465Z,63.33
2023-04-09T19:39:17.213Z,71.37
2023-04-09T19:41:44.985Z,75.30
2023-04-09T19:44:12.824Z,79.40
2023-04-09T19:46:42.264Z,74.40
2023-04-09T19:49:10.275Z,73.10
2023-04-09T19:51:38.095Z,69.30
2023-04-09T19:54:05.819Z,66.87
2023-04-09T19:56:34.054Z,67.93
2023-04-09T19:59:02.207Z,60.30
2023-04-09T20:01:30.112Z,67.87
2023-04-09T20:03:59.482Z,62.93
2023-04-09T20:06:28.815Z,67.93
2023-04-09T20:08:56.591Z,68.70
2023-04-09T20:11:24.525Z,76.27
2023-04-09T20:13:52.372Z,80.07
2023-04-09T20:16:20.289Z,88.30
2023-04-09T20:18:48.201Z,88.57
2023-04-09T20:21:17.529Z,86.13
2023-04-09T20:23:45.528Z,80.73
2023-04-09T20:26:13.620Z,70.03
2023-04-09T20:28:42.144Z,72.53
2023-04-09T20:31:09.975Z,72.57
2023-04-09T20:33:37.820Z,67.17
2023-04-09T20:36:15.168Z,68.47
2023-04-09T20:38:44.911Z,64.77
2023-04-09T20:41:12.708Z,61.03
2023-04-09T20:43:40.672Z,63.53
2023-04-09T20:46:08.603Z,66.97
2023-04-09T20:48:36.455Z,66.43
2023-04-09T20:51:09.997Z,71.47
2023-04-09T20:53:38.614Z,73.40
2023-04-09T20:56:09.113Z,67.67
2023-04-09T20:58:37.277Z,66.37
2023-04-09T21:01:07.644Z,69.53
2023-04-09T21:03:36.230Z,70.47
2023-04-09T21:06:04.934Z,68.77
2023-04-09T21:08:32.973Z,84.87
2023-04-09T21:11:00.882Z,79.57
2023-04-09T21:13:33.664Z,83.40
2023-04-09T21:16:08.792Z,77.57
2023-04-09T21:18:36.688Z,75.17
2023-04-09T21:21:07.418Z,84.37
2023-04-09T21:23:35.326Z,98.03
2023-04-09T21:26:03.454Z,72.80
2023-04-09T21:28:32.654Z,67.43
2023-04-09T21:31:00.561Z,66.87
2023-04-09T21:33:30.056Z,65.67
2023-04-09T21:35:58.247Z,67.73
2023-04-09T21:38:26.170Z,74.80
2023-04-09T21:40:54.072Z,67.13
2023-04-09T21:43:21.809Z,67.17
2023-04-09T21:45:51.155Z,62.07
2023-04-09T21:48:19.068Z,67.20
2023-04-09T21:50:47.058Z,68.17
2023-04-09T21:53:15.871Z,65.80
2023-04-09T21:55:43.702Z,70.20
2023-04-09T21:58:11.980Z,72.57
2023-04-09T22:00:40.030Z,71.80
2023-04-09T22:03:09.439Z,73.97
2023-04-09T22:05:37.438Z,73.00
2023-04-09T22:08:05.285Z,70.40
2023-04-09T22:10:33.374Z,69.73
2023-04-09T22:13:01.264Z,68.13
2023-04-09T22:15:29.228Z,65.80
2023-04-09T22:17:57.593Z,65.37
2023-04-09T22:20:26.911Z,63.10
2023-04-09T22:22:54.890Z,63.57
2023-04-09T22:25:23.050Z,59.13
2023-04-09T22:27:52.215Z,58.77
2023-04-09T22:30:21.747Z,59.57
2023-04-09T22:32:50.011Z,56.33
2023-04-09T22:35:18.353Z,58.00
2023-04-09T22:37:47.551Z,60.93
2023-04-09T22:40:16.633Z,61.43
2023-04-09T22:42:46.645Z,60.97
2023-04-09T22:45:14.599Z,63.07
2023-04-09T22:47:42.456Z,62.03
2023-04-09T22:50:11.359Z,63.10
2023-04-09T22:52:39.120Z,61.13
2023-04-09T22:55:10.097Z,62.40
2023-04-09T22:57:38.282Z,64.97
2023-04-09T23:00:08.536Z,64.63
2023-04-09T23:02:37.058Z,62.27
2023-04-09T23:05:05.685Z,65.77
2023-04-09T23:07:33.729Z,65.33
2023-04-09T23:10:01.773Z,65.77
2023-04-09T23:12:31.026Z,66.10
2023-04-09T23:14:58.905Z,66.93
2023-04-09T23:17:27.672Z,68.00
2023-04-09T23:19:55.611Z,69.60
2023-04-09T23:22:24.225Z,69.17
2023-04-09T23:24:52.042Z,66.57
2023-04-09T23:27:19.818Z,70.10
2023-04-09T23:29:49.066Z,68.90
2023-04-09T23:32:16.867Z,67.13
2023-04-09T23:34:44.620Z,69.23
2023-04-09T23:37:12.523Z,71.73
2023-04-09T23:39:41.116Z,73.73
2023-04-09T23:42:08.978Z,69.67
2023-04-09T23:44:36.768Z,74.53
2023-04-09T23:47:06.549Z,72.17
2023-04-09T23:49:34.421Z,70.67
2023-04-09T23:52:02.278Z,71.27
2023-04-09T23:54:30.635Z,67.27
2023-04-09T23:56:58.524Z,72.17
2023-04-09T23:59:26.444Z,70.83
